sensor_id;sensor_type;location;lat;lon;timestamp;P1;durP1;ratioP1;P2;durP2;ratioP2
22388;SDS011;11362;48.102;11.620;2022-08-04T00:01:39;2.77;;;1.50;;
22388;SDS011;11362;48.102;11.620;2022-08-04T00:04:13;1.93;;;1.83;;
22388;SDS011;11362;48.102;11.620;2022-08-04T00:06:59;1.90;;;1.77;;
22388;SDS011;11362;48.102;11.620;2022-08-04T00:12:30;1.43;;;1.40;;
22388;SDS011;11362;48.102;11.620;2022-08-04T00:15:00;1.60;;;1.50;;
22388;SDS011;11362;48.102;11.620;2022-08-04T00:17:31;1.77;;;1.67;;
22388;SDS011;11362;48.102;11.620;2022-08-04T00:20:02;3.37;;;1.90;;
22388;SDS011;11362;48.102;11.620;2022-08-04T00:22:29;2.40;;;1.70;;
22388;SDS011;11362;48.102;11.620;2022-08-04T00:24:55;1.73;;;1.63;;
22388;SDS011;11362;48.102;11.620;2022-08-04T00:27:21;1.93;;;1.83;;
22388;SDS011;11362;48.102;11.620;2022-08-04T00:29:47;1.40;;;1.40;;
22388;SDS011;11362;48.102;11.620;2022-08-04T00:32:13;1.80;;;1.70;;
22388;SDS011;11362;48.102;11.620;2022-08-04T00:34:40;1.67;;;1.50;;
22388;SDS011;11362;48.102;11.620;2022-08-04T00:37:06;2.90;;;1.83;;
22388;SDS011;11362;48.102;11.620;2022-08-04T00:39:32;1.97;;;1.63;;
22388;SDS011;11362;48.102;11.620;2022-08-04T00:54:57;1.47;;;1.37;;
22388;SDS011;11362;48.102;11.620;2022-08-04T01:00:26;1.60;;;1.40;;
22388;SDS011;11362;48.102;11.620;2022-08-04T01:14:07;1.87;;;1.57;;
22388;SDS011;11362;48.102;11.620;2022-08-04T01:16:51;1.70;;;1.60;;
22388;SDS011;11362;48.102;11.620;2022-08-04T01:19:28;1.37;;;1.33;;
22388;SDS011;11362;48.102;11.620;2022-08-04T01:30:12;1.40;;;1.30;;
22388;SDS011;11362;48.102;11.620;2022-08-04T01:32:47;2.00;;;1.53;;
22388;SDS011;11362;48.102;11.620;2022-08-04T01:40:59;1.70;;;1.60;;
22388;SDS011;11362;48.102;11.620;2022-08-04T01:43:29;1.37;;;1.37;;
22388;SDS011;11362;48.102;11.620;2022-08-04T01:45:57;1.67;;;1.57;;
22388;SDS011;11362;48.102;11.620;2022-08-04T01:48:29;1.90;;;1.80;;
22388;SDS011;11362;48.102;11.620;2022-08-04T01:50:56;1.50;;;1.40;;
22388;SDS011;11362;48.102;11.620;2022-08-04T01:53:28;1.93;;;1.17;;
22388;SDS011;11362;48.102;11.620;2022-08-04T01:55:55;3.07;;;2.03;;
22388;SDS011;11362;48.102;11.620;2022-08-04T01:58:22;2.63;;;1.60;;
22388;SDS011;11362;48.102;11.620;2022-08-04T02:01:01;1.87;;;1.60;;
22388;SDS011;11362;48.102;11.620;2022-08-04T02:03:29;1.43;;;1.33;;
22388;SDS011;11362;48.102;11.620;2022-08-04T02:09:08;1.30;;;1.23;;
22388;SDS011;11362;48.102;11.620;2022-08-04T02:11:40;1.30;;;1.20;;
22388;SDS011;11362;48.102;11.620;2022-08-04T02:16:46;1.40;;;1.30;;
22388;SDS011;11362;48.102;11.620;2022-08-04T02:19:34;1.70;;;1.60;;
22388;SDS011;11362;48.102;11.620;2022-08-04T02:22:09;1.93;;;1.50;;
22388;SDS011;11362;48.102;11.620;2022-08-04T02:24:44;1.43;;;1.30;;
22388;SDS011;11362;48.102;11.620;2022-08-04T02:27:13;1.60;;;1.50;;
22388;SDS011;11362;48.102;11.620;2022-08-04T02:29:53;1.83;;;1.73;;
22388;SDS011;11362;48.102;11.620;2022-08-04T02:32:26;2.00;;;1.80;;
22388;SDS011;11362;48.102;11.620;2022-08-04T02:35:05;1.50;;;1.50;;
22388;SDS011;11362;48.102;11.620;2022-08-04T02:37:33;1.60;;;1.53;;
22388;SDS011;11362;48.102;11.620;2022-08-04T02:40:00;1.30;;;1.30;;
22388;SDS011;11362;48.102;11.620;2022-08-04T02:42:28;1.43;;;1.33;;
22388;SDS011;11362;48.102;11.620;2022-08-04T02:44:55;1.53;;;1.43;;
22388;SDS011;11362;48.102;11.620;2022-08-04T02:47:23;1.50;;;1.50;;
22388;SDS011;11362;48.102;11.620;2022-08-04T02:49:51;2.13;;;1.47;;
22388;SDS011;11362;48.102;11.620;2022-08-04T02:52:18;1.40;;;1.40;;
22388;SDS011;11362;48.102;11.620;2022-08-04T02:54:46;1.80;;;1.70;;
22388;SDS011;11362;48.102;11.620;2022-08-04T02:57:13;2.70;;;1.50;;
22388;SDS011;11362;48.102;11.620;2022-08-04T02:59:53;1.23;;;1.23;;
22388;SDS011;11362;48.102;11.620;2022-08-04T03:02:38;2.30;;;1.50;;
22388;SDS011;11362;48.102;11.620;2022-08-04T03:05:24;2.00;;;1.50;;
22388;SDS011;11362;48.102;11.620;2022-08-04T03:11:07;4.00;;;1.60;;
22388;SDS011;11362;48.102;11.620;2022-08-04T03:25:30;1.77;;;1.37;;
22388;SDS011;11362;48.102;11.620;2022-08-04T03:34:02;1.40;;;1.40;;
22388;SDS011;11362;48.102;11.620;2022-08-04T03:37:02;1.80;;;1.40;;
22388;SDS011;11362;48.102;11.620;2022-08-04T03:39:57;1.10;;;1.10;;
22388;SDS011;11362;48.102;11.620;2022-08-04T03:48:21;2.23;;;1.50;;
22388;SDS011;11362;48.102;11.620;2022-08-04T03:59:32;1.27;;;1.27;;
22388;SDS011;11362;48.102;11.620;2022-08-04T04:19:43;1.30;;;1.30;;
22388;SDS011;11362;48.102;11.620;2022-08-04T04:22:40;1.70;;;1.60;;
22388;SDS011;11362;48.102;11.620;2022-08-04T04:28:10;2.73;;;1.30;;
22388;SDS011;11362;48.102;11.620;2022-08-04T04:31:17;2.10;;;1.73;;
22388;SDS011;11362;48.102;11.620;2022-08-04T04:36:43;1.60;;;1.50;;
22388;SDS011;11362;48.102;11.620;2022-08-04T04:39:40;1.50;;;1.50;;
22388;SDS011;11362;48.102;11.620;2022-08-04T04:44:55;1.87;;;1.77;;
22388;SDS011;11362;48.102;11.620;2022-08-04T04:47:49;2.20;;;2.00;;
22388;SDS011;11362;48.102;11.620;2022-08-04T04:56:26;1.63;;;1.53;;
22388;SDS011;11362;48.102;11.620;2022-08-04T04:58:55;3.30;;;1.63;;
22388;SDS011;11362;48.102;11.620;2022-08-04T05:12:37;1.93;;;1.83;;
22388;SDS011;11362;48.102;11.620;2022-08-04T05:15:23;1.50;;;1.30;;
22388;SDS011;11362;48.102;11.620;2022-08-04T05:17:54;1.60;;;1.50;;
22388;SDS011;11362;48.102;11.620;2022-08-04T05:20:24;2.30;;;1.93;;
22388;SDS011;11362;48.102;11.620;2022-08-04T05:23:00;2.60;;;1.80;;
22388;SDS011;11362;48.102;11.620;2022-08-04T05:30:36;2.93;;;2.03;;
22388;SDS011;11362;48.102;11.620;2022-08-04T05:33:06;2.63;;;1.77;;
22388;SDS011;11362;48.102;11.620;2022-08-04T05:35:36;2.90;;;1.80;;
22388;SDS011;11362;48.102;11.620;2022-08-04T05:38:07;2.87;;;1.97;;
22388;SDS011;11362;48.102;11.620;2022-08-04T05:40:36;2.97;;;2.07;;
22388;SDS011;11362;48.102;11.620;2022-08-04T05:43:03;7.00;;;2.40;;
22388;SDS011;11362;48.102;11.620;2022-08-04T05:45:29;4.90;;;2.00;;
22388;SDS011;11362;48.102;11.620;2022-08-04T05:47:54;2.40;;;2.20;;
22388;SDS011;11362;48.102;11.620;2022-08-04T05:50:20;4.03;;;2.37;;
22388;SDS011;11362;48.102;11.620;2022-08-04T05:52:46;2.10;;;2.00;;
22388;SDS011;11362;48.102;11.620;2022-08-04T05:55:13;3.37;;;2.00;;
22388;SDS011;11362;48.102;11.620;2022-08-04T05:57:40;2.17;;;1.97;;
22388;SDS011;11362;48.102;11.620;2022-08-04T06:00:07;5.47;;;2.50;;
22388;SDS011;11362;48.102;11.620;2022-08-04T06:02:33;4.67;;;2.20;;
22388;SDS011;11362;48.102;11.620;2022-08-04T06:05:01;2.90;;;1.80;;
22388;SDS011;11362;48.102;11.620;2022-08-04T06:07:29;3.97;;;1.90;;
22388;SDS011;11362;48.102;11.620;2022-08-04T06:09:54;9.23;;;2.33;;
22388;SDS011;11362;48.102;11.620;2022-08-04T06:12:20;7.73;;;2.70;;
22388;SDS011;11362;48.102;11.620;2022-08-04T06:14:49;4.60;;;2.13;;
22388;SDS011;11362;48.102;11.620;2022-08-04T06:17:22;7.97;;;2.13;;
22388;SDS011;11362;48.102;11.620;2022-08-04T06:19:50;5.63;;;2.17;;
22388;SDS011;11362;48.102;11.620;2022-08-04T06:22:17;6.30;;;2.30;;
22388;SDS011;11362;48.102;11.620;2022-08-04T06:24:45;4.50;;;2.20;;
22388;SDS011;11362;48.102;11.620;2022-08-04T06:27:12;10.00;;;2.20;;
22388;SDS011;11362;48.102;11.620;2022-08-04T06:29:39;4.67;;;2.17;;
22388;SDS011;11362;48.102;11.620;2022-08-04T06:32:05;5.43;;;2.30;;
22388;SDS011;11362;48.102;11.620;2022-08-04T06:34:31;2.37;;;2.17;;
22388;SDS011;11362;48.102;11.620;2022-08-04T06:36:58;5.33;;;2.30;;
22388;SDS011;11362;48.102;11.620;2022-08-04T06:39:24;3.13;;;1.97;;
22388;SDS011;11362;48.102;11.620;2022-08-04T06:41:52;2.30;;;2.10;;
22388;SDS011;11362;48.102;11.620;2022-08-04T06:44:18;5.00;;;1.87;;
22388;SDS011;11362;48.102;11.620;2022-08-04T06:46:45;3.43;;;2.20;;
22388;SDS011;11362;48.102;11.620;2022-08-04T06:49:12;3.37;;;2.23;;
22388;SDS011;11362;48.102;11.620;2022-08-04T06:51:38;3.47;;;1.90;;
22388;SDS011;11362;48.102;11.620;2022-08-04T06:54:05;3.03;;;1.70;;
22388;SDS011;11362;48.102;11.620;2022-08-04T06:56:31;5.30;;;2.07;;
22388;SDS011;11362;48.102;11.620;2022-08-04T06:58:58;1.70;;;1.60;;
22388;SDS011;11362;48.102;11.620;2022-08-04T07:01:26;5.73;;;2.27;;
22388;SDS011;11362;48.102;11.620;2022-08-04T07:03:53;3.23;;;2.50;;
22388;SDS011;11362;48.102;11.620;2022-08-04T07:06:20;2.40;;;1.80;;
22388;SDS011;11362;48.102;11.620;2022-08-04T07:08:46;2.13;;;1.90;;
22388;SDS011;11362;48.102;11.620;2022-08-04T07:11:12;2.37;;;2.17;;
22388;SDS011;11362;48.102;11.620;2022-08-04T07:13:38;2.30;;;2.10;;
22388;SDS011;11362;48.102;11.620;2022-08-04T07:16:04;2.30;;;2.10;;
22388;SDS011;11362;48.102;11.620;2022-08-04T07:18:31;4.07;;;2.40;;
22388;SDS011;11362;48.102;11.620;2022-08-04T07:20:56;4.43;;;1.93;;
22388;SDS011;11362;48.102;11.620;2022-08-04T07:23:23;3.13;;;2.00;;
22388;SDS011;11362;48.102;11.620;2022-08-04T07:25:50;3.13;;;2.40;;
22388;SDS011;11362;48.102;11.620;2022-08-04T07:28:20;3.63;;;2.33;;
22388;SDS011;11362;48.102;11.620;2022-08-04T07:30:46;3.63;;;2.17;;
22388;SDS011;11362;48.102;11.620;2022-08-04T07:33:13;7.07;;;2.87;;
22388;SDS011;11362;48.102;11.620;2022-08-04T07:35:40;4.67;;;2.37;;
22388;SDS011;11362;48.102;11.620;2022-08-04T07:38:06;6.27;;;2.50;;
22388;SDS011;11362;48.102;11.620;2022-08-04T07:40:31;4.40;;;2.90;;
22388;SDS011;11362;48.102;11.620;2022-08-04T07:42:59;5.33;;;2.80;;
22388;SDS011;11362;48.102;11.620;2022-08-04T07:45:25;5.33;;;2.23;;
22388;SDS011;11362;48.102;11.620;2022-08-04T07:47:50;3.10;;;2.23;;
22388;SDS011;11362;48.102;11.620;2022-08-04T07:50:15;4.43;;;2.40;;
22388;SDS011;11362;48.102;11.620;2022-08-04T07:52:41;4.93;;;2.77;;
22388;SDS011;11362;48.102;11.620;2022-08-04T07:55:06;2.60;;;2.40;;
22388;SDS011;11362;48.102;11.620;2022-08-04T07:57:32;4.67;;;2.40;;
22388;SDS011;11362;48.102;11.620;2022-08-04T07:59:58;3.70;;;2.37;;
22388;SDS011;11362;48.102;11.620;2022-08-04T08:02:23;2.60;;;2.30;;
22388;SDS011;11362;48.102;11.620;2022-08-04T08:04:49;3.70;;;2.43;;
22388;SDS011;11362;48.102;11.620;2022-08-04T08:07:17;2.70;;;2.50;;
22388;SDS011;11362;48.102;11.620;2022-08-04T08:09:43;4.10;;;2.50;;
22388;SDS011;11362;48.102;11.620;2022-08-04T08:12:09;2.63;;;2.43;;
22388;SDS011;11362;48.102;11.620;2022-08-04T08:14:34;4.33;;;2.30;;
22388;SDS011;11362;48.102;11.620;2022-08-04T08:17:00;2.93;;;2.63;;
22388;SDS011;11362;48.102;11.620;2022-08-04T08:19:27;3.10;;;2.53;;
22388;SDS011;11362;48.102;11.620;2022-08-04T08:21:53;5.00;;;2.53;;
22388;SDS011;11362;48.102;11.620;2022-08-04T08:24:18;3.33;;;2.27;;
22388;SDS011;11362;48.102;11.620;2022-08-04T08:26:44;2.43;;;2.20;;
22388;SDS011;11362;48.102;11.620;2022-08-04T08:29:09;3.20;;;2.60;;
22388;SDS011;11362;48.102;11.620;2022-08-04T08:31:35;2.03;;;1.93;;
22388;SDS011;11362;48.102;11.620;2022-08-04T08:34:00;2.40;;;2.30;;
22388;SDS011;11362;48.102;11.620;2022-08-04T08:39:08;2.90;;;2.03;;
22388;SDS011;11362;48.102;11.620;2022-08-04T09:06:26;7.50;;;4.07;;
22388;SDS011;11362;48.102;11.620;2022-08-04T09:09:34;2.40;;;2.20;;
22388;SDS011;11362;48.102;11.620;2022-08-04T09:12:27;2.50;;;2.30;;
22388;SDS011;11362;48.102;11.620;2022-08-04T09:17:49;2.37;;;2.27;;
22388;SDS011;11362;48.102;11.620;2022-08-04T09:20:24;2.60;;;2.40;;
22388;SDS011;11362;48.102;11.620;2022-08-04T09:26:01;3.30;;;2.20;;
22388;SDS011;11362;48.102;11.620;2022-08-04T09:28:34;2.10;;;2.00;;
22388;SDS011;11362;48.102;11.620;2022-08-04T09:31:22;2.43;;;2.23;;
22388;SDS011;11362;48.102;11.620;2022-08-04T09:34:06;2.97;;;2.17;;
22388;SDS011;11362;48.102;11.620;2022-08-04T09:36:42;1.93;;;1.83;;
22388;SDS011;11362;48.102;11.620;2022-08-04T09:39:18;4.43;;;2.17;;
22388;SDS011;11362;48.102;11.620;2022-08-04T09:47:49;2.33;;;2.13;;
22388;SDS011;11362;48.102;11.620;2022-08-04T09:53:09;2.27;;;2.17;;
22388;SDS011;11362;48.102;11.620;2022-08-04T10:01:12;2.13;;;1.93;;
22388;SDS011;11362;48.102;11.620;2022-08-04T10:03:42;2.27;;;2.13;;
22388;SDS011;11362;48.102;11.620;2022-08-04T10:22:47;3.63;;;2.03;;
22388;SDS011;11362;48.102;11.620;2022-08-04T10:25:41;3.23;;;2.00;;
22388;SDS011;11362;48.102;11.620;2022-08-04T10:28:19;2.10;;;2.00;;
22388;SDS011;11362;48.102;11.620;2022-08-04T10:30:51;2.20;;;2.10;;
22388;SDS011;11362;48.102;11.620;2022-08-04T10:33:23;1.90;;;1.80;;
22388;SDS011;11362;48.102;11.620;2022-08-04T10:35:59;1.97;;;1.87;;
22388;SDS011;11362;48.102;11.620;2022-08-04T10:38:36;2.23;;;2.13;;
22388;SDS011;11362;48.102;11.620;2022-08-04T10:41:46;3.17;;;2.07;;
22388;SDS011;11362;48.102;11.620;2022-08-04T10:47:15;1.90;;;1.67;;
22388;SDS011;11362;48.102;11.620;2022-08-04T10:49:47;2.63;;;2.43;;
22388;SDS011;11362;48.102;11.620;2022-08-04T10:55:34;2.60;;;2.10;;
22388;SDS011;11362;48.102;11.620;2022-08-04T10:58:19;2.13;;;2.03;;
22388;SDS011;11362;48.102;11.620;2022-08-04T11:00:49;2.10;;;1.90;;
22388;SDS011;11362;48.102;11.620;2022-08-04T11:03:46;3.17;;;2.00;;
22388;SDS011;11362;48.102;11.620;2022-08-04T11:06:13;2.10;;;2.00;;
22388;SDS011;11362;48.102;11.620;2022-08-04T11:08:43;2.23;;;2.07;;
22388;SDS011;11362;48.102;11.620;2022-08-04T11:11:16;2.03;;;1.93;;
22388;SDS011;11362;48.102;11.620;2022-08-04T11:14:10;2.30;;;2.20;;
22388;SDS011;11362;48.102;11.620;2022-08-04T11:19:19;2.13;;;2.03;;
22388;SDS011;11362;48.102;11.620;2022-08-04T11:21:58;2.90;;;2.13;;
22388;SDS011;11362;48.102;11.620;2022-08-04T11:24:35;2.30;;;2.17;;
22388;SDS011;11362;48.102;11.620;2022-08-04T11:27:18;1.90;;;1.80;;
22388;SDS011;11362;48.102;11.620;2022-08-04T11:32:41;2.03;;;1.83;;
22388;SDS011;11362;48.102;11.620;2022-08-04T11:35:57;2.27;;;2.07;;
22388;SDS011;11362;48.102;11.620;2022-08-04T11:38:21;1.80;;;1.70;;
22388;SDS011;11362;48.102;11.620;2022-08-04T11:41:09;1.83;;;1.60;;
22388;SDS011;11362;48.102;11.620;2022-08-04T11:43:54;1.90;;;1.80;;
22388;SDS011;11362;48.102;11.620;2022-08-04T11:46:22;1.90;;;1.80;;
22388;SDS011;11362;48.102;11.620;2022-08-04T11:51:34;3.30;;;2.03;;
22388;SDS011;11362;48.102;11.620;2022-08-04T11:54:00;2.20;;;2.07;;
22388;SDS011;11362;48.102;11.620;2022-08-04T11:56:26;2.33;;;2.07;;
22388;SDS011;11362;48.102;11.620;2022-08-04T11:58:51;1.97;;;1.80;;
22388;SDS011;11362;48.102;11.620;2022-08-04T12:01:19;2.27;;;1.90;;
22388;SDS011;11362;48.102;11.620;2022-08-04T12:03:58;2.03;;;1.93;;
22388;SDS011;11362;48.102;11.620;2022-08-04T12:06:51;2.00;;;1.90;;
22388;SDS011;11362;48.102;11.620;2022-08-04T12:12:34;2.37;;;2.17;;
22388;SDS011;11362;48.102;11.620;2022-08-04T12:21:17;1.70;;;1.60;;
22388;SDS011;11362;48.102;11.620;2022-08-04T12:23:30;4.43;;;2.00;;
22388;SDS011;11362;48.102;11.620;2022-08-04T12:26:02;2.63;;;1.83;;
22388;SDS011;11362;48.102;11.620;2022-08-04T12:28:39;2.93;;;2.03;;
22388;SDS011;11362;48.102;11.620;2022-08-04T12:33:55;3.20;;;1.77;;
22388;SDS011;11362;48.102;11.620;2022-08-04T12:39:14;1.80;;;1.70;;
22388;SDS011;11362;48.102;11.620;2022-08-04T12:41:43;1.97;;;1.87;;
22388;SDS011;11362;48.102;11.620;2022-08-04T12:44:16;3.33;;;1.80;;
22388;SDS011;11362;48.102;11.620;2022-08-04T12:46:44;1.60;;;1.60;;
22388;SDS011;11362;48.102;11.620;2022-08-04T12:49:10;3.10;;;1.97;;
22388;SDS011;11362;48.102;11.620;2022-08-04T12:51:38;2.10;;;2.00;;
22388;SDS011;11362;48.102;11.620;2022-08-04T12:54:06;1.83;;;1.70;;
22388;SDS011;11362;48.102;11.620;2022-08-04T12:56:33;1.70;;;1.60;;
22388;SDS011;11362;48.102;11.620;2022-08-04T12:59:00;2.73;;;1.60;;
22388;SDS011;11362;48.102;11.620;2022-08-04T13:01:28;1.57;;;1.57;;
22388;SDS011;11362;48.102;11.620;2022-08-04T13:03:57;2.03;;;1.83;;
22388;SDS011;11362;48.102;11.620;2022-08-04T13:06:25;1.70;;;1.60;;
22388;SDS011;11362;48.102;11.620;2022-08-04T13:08:53;1.33;;;1.33;;
22388;SDS011;11362;48.102;11.620;2022-08-04T13:11:20;4.27;;;1.87;;
22388;SDS011;11362;48.102;11.620;2022-08-04T13:13:46;5.20;;;1.83;;
22388;SDS011;11362;48.102;11.620;2022-08-04T13:16:17;1.73;;;1.63;;
22388;SDS011;11362;48.102;11.620;2022-08-04T13:18:52;3.17;;;1.50;;
22388;SDS011;11362;48.102;11.620;2022-08-04T13:21:18;1.70;;;1.60;;
22388;SDS011;11362;48.102;11.620;2022-08-04T13:23:46;2.00;;;1.90;;
22388;SDS011;11362;48.102;11.620;2022-08-04T13:26:13;2.13;;;1.70;;
22388;SDS011;11362;48.102;11.620;2022-08-04T13:28:40;1.80;;;1.70;;
22388;SDS011;11362;48.102;11.620;2022-08-04T13:31:08;1.77;;;1.67;;
22388;SDS011;11362;48.102;11.620;2022-08-04T13:33:37;1.50;;;1.40;;
22388;SDS011;11362;48.102;11.620;2022-08-04T13:36:06;1.90;;;1.80;;
22388;SDS011;11362;48.102;11.620;2022-08-04T13:38:32;1.93;;;1.83;;
22388;SDS011;11362;48.102;11.620;2022-08-04T13:41:02;1.80;;;1.70;;
22388;SDS011;11362;48.102;11.620;2022-08-04T13:43:39;1.80;;;1.73;;
22388;SDS011;11362;48.102;11.620;2022-08-04T13:46:06;5.17;;;2.13;;
22388;SDS011;11362;48.102;11.620;2022-08-04T13:48:37;1.80;;;1.70;;
22388;SDS011;11362;48.102;11.620;2022-08-04T13:51:05;1.50;;;1.47;;
22388;SDS011;11362;48.102;11.620;2022-08-04T13:53:31;2.13;;;1.50;;
22388;SDS011;11362;48.102;11.620;2022-08-04T13:55:58;2.30;;;2.10;;
22388;SDS011;11362;48.102;11.620;2022-08-04T13:58:25;2.57;;;1.93;;
22388;SDS011;11362;48.102;11.620;2022-08-04T14:01:03;4.20;;;1.60;;
22388;SDS011;11362;48.102;11.620;2022-08-04T14:03:35;3.80;;;1.90;;
22388;SDS011;11362;48.102;11.620;2022-08-04T14:06:15;2.40;;;2.20;;
22388;SDS011;11362;48.102;11.620;2022-08-04T14:11:30;2.10;;;2.00;;
22388;SDS011;11362;48.102;11.620;2022-08-04T14:13:59;2.07;;;1.90;;
22388;SDS011;11362;48.102;11.620;2022-08-04T14:16:26;2.23;;;2.00;;
22388;SDS011;11362;48.102;11.620;2022-08-04T14:18:58;1.80;;;1.80;;
22388;SDS011;11362;48.102;11.620;2022-08-04T14:21:25;2.03;;;1.80;;
22388;SDS011;11362;48.102;11.620;2022-08-04T14:23:51;2.40;;;2.20;;
22388;SDS011;11362;48.102;11.620;2022-08-04T14:26:30;1.80;;;1.77;;
22388;SDS011;11362;48.102;11.620;2022-08-04T14:29:06;3.03;;;1.60;;
22388;SDS011;11362;48.102;11.620;2022-08-04T14:31:33;1.93;;;1.83;;
22388;SDS011;11362;48.102;11.620;2022-08-04T14:33:59;2.13;;;1.93;;
22388;SDS011;11362;48.102;11.620;2022-08-04T14:36:24;2.30;;;2.10;;
22388;SDS011;11362;48.102;11.620;2022-08-04T14:38:56;2.60;;;1.87;;
22388;SDS011;11362;48.102;11.620;2022-08-04T14:41:26;3.13;;;1.93;;
22388;SDS011;11362;48.102;11.620;2022-08-04T14:43:54;2.97;;;1.80;;
22388;SDS011;11362;48.102;11.620;2022-08-04T14:46:21;2.80;;;2.10;;
22388;SDS011;11362;48.102;11.620;2022-08-04T14:51:32;2.97;;;1.90;;
22388;SDS011;11362;48.102;11.620;2022-08-04T14:54:02;1.90;;;1.80;;
22388;SDS011;11362;48.102;11.620;2022-08-04T14:56:28;2.20;;;2.00;;
22388;SDS011;11362;48.102;11.620;2022-08-04T14:58:58;1.80;;;1.70;;
22388;SDS011;11362;48.102;11.620;2022-08-04T15:01:26;2.30;;;1.80;;
22388;SDS011;11362;48.102;11.620;2022-08-04T15:03:51;2.30;;;2.10;;
22388;SDS011;11362;48.102;11.620;2022-08-04T15:06:22;2.28;;;2.17;;
22388;SDS011;11362;48.102;11.620;2022-08-04T15:08:50;2.30;;;2.10;;
22388;SDS011;11362;48.102;11.620;2022-08-04T15:11:16;2.10;;;2.00;;
22388;SDS011;11362;48.102;11.620;2022-08-04T15:13:42;2.00;;;1.83;;
22388;SDS011;11362;48.102;11.620;2022-08-04T15:16:09;1.73;;;1.63;;
22388;SDS011;11362;48.102;11.620;2022-08-04T15:18:35;2.27;;;2.17;;
22388;SDS011;11362;48.102;11.620;2022-08-04T15:21:01;2.40;;;2.20;;
22388;SDS011;11362;48.102;11.620;2022-08-04T15:23:27;2.80;;;2.20;;
22388;SDS011;11362;48.102;11.620;2022-08-04T15:25:53;2.17;;;2.07;;
22388;SDS011;11362;48.102;11.620;2022-08-04T15:28:24;3.57;;;2.27;;
22388;SDS011;11362;48.102;11.620;2022-08-04T15:30:51;2.10;;;2.00;;
22388;SDS011;11362;48.102;11.620;2022-08-04T15:33:18;2.77;;;2.30;;
22388;SDS011;11362;48.102;11.620;2022-08-04T15:35:45;2.33;;;2.10;;
22388;SDS011;11362;48.102;11.620;2022-08-04T15:38:30;1.80;;;1.70;;
22388;SDS011;11362;48.102;11.620;2022-08-04T15:41:07;2.07;;;1.73;;
22388;SDS011;11362;48.102;11.620;2022-08-04T15:46:08;2.97;;;1.90;;
22388;SDS011;11362;48.102;11.620;2022-08-04T15:48:34;2.10;;;2.00;;
22388;SDS011;11362;48.102;11.620;2022-08-04T15:51:00;3.50;;;2.07;;
22388;SDS011;11362;48.102;11.620;2022-08-04T15:53:28;1.90;;;1.80;;
22388;SDS011;11362;48.102;11.620;2022-08-04T15:56:41;1.97;;;1.80;;
22388;SDS011;11362;48.102;11.620;2022-08-04T15:58:50;3.03;;;1.90;;
22388;SDS011;11362;48.102;11.620;2022-08-04T16:01:17;1.70;;;1.60;;
22388;SDS011;11362;48.102;11.620;2022-08-04T16:03:47;2.22;;;1.95;;
22388;SDS011;11362;48.102;11.620;2022-08-04T16:16:29;3.13;;;1.67;;
22388;SDS011;11362;48.102;11.620;2022-08-04T16:19:09;1.67;;;1.60;;
22388;SDS011;11362;48.102;11.620;2022-08-04T16:21:52;2.07;;;1.80;;
22388;SDS011;11362;48.102;11.620;2022-08-04T16:26:59;2.13;;;1.80;;
22388;SDS011;11362;48.102;11.620;2022-08-04T16:34:30;2.00;;;1.90;;
22388;SDS011;11362;48.102;11.620;2022-08-04T16:36:59;1.80;;;1.70;;
22388;SDS011;11362;48.102;11.620;2022-08-04T16:39:26;1.57;;;1.57;;
22388;SDS011;11362;48.102;11.620;2022-08-04T16:41:51;1.63;;;1.53;;
22388;SDS011;11362;48.102;11.620;2022-08-04T16:44:30;3.00;;;1.90;;
22388;SDS011;11362;48.102;11.620;2022-08-04T16:46:57;1.77;;;1.67;;
22388;SDS011;11362;48.102;11.620;2022-08-04T16:49:23;1.77;;;1.67;;
22388;SDS011;11362;48.102;11.620;2022-08-04T16:51:49;1.87;;;1.77;;
22388;SDS011;11362;48.102;11.620;2022-08-04T16:54:15;2.00;;;1.73;;
22388;SDS011;11362;48.102;11.620;2022-08-04T16:56:41;2.70;;;1.83;;
22388;SDS011;11362;48.102;11.620;2022-08-04T16:59:10;2.10;;;2.00;;
22388;SDS011;11362;48.102;11.620;2022-08-04T17:01:37;3.03;;;1.67;;
22388;SDS011;11362;48.102;11.620;2022-08-04T17:04:09;1.95;;;1.83;;
22388;SDS011;11362;48.102;11.620;2022-08-04T17:06:36;3.00;;;1.83;;
22388;SDS011;11362;48.102;11.620;2022-08-04T17:09:04;2.93;;;2.27;;
22388;SDS011;11362;48.102;11.620;2022-08-04T17:11:33;2.55;;;2.35;;
22388;SDS011;11362;48.102;11.620;2022-08-04T17:13:58;2.67;;;2.13;;
22388;SDS011;11362;48.102;11.620;2022-08-04T17:16:23;1.90;;;1.80;;
22388;SDS011;11362;48.102;11.620;2022-08-04T17:18:53;1.50;;;1.50;;
22388;SDS011;11362;48.102;11.620;2022-08-04T17:21:26;4.73;;;1.97;;
22388;SDS011;11362;48.102;11.620;2022-08-04T17:23:55;2.37;;;2.00;;
22388;SDS011;11362;48.102;11.620;2022-08-04T17:26:23;2.40;;;2.10;;
22388;SDS011;11362;48.102;11.620;2022-08-04T17:28:51;5.03;;;2.37;;
22388;SDS011;11362;48.102;11.620;2022-08-04T17:31:18;2.47;;;1.80;;
22388;SDS011;11362;48.102;11.620;2022-08-04T17:33:44;2.30;;;2.10;;
22388;SDS011;11362;48.102;11.620;2022-08-04T17:36:12;3.77;;;1.73;;
22388;SDS011;11362;48.102;11.620;2022-08-04T17:38:43;1.80;;;1.70;;
22388;SDS011;11362;48.102;11.620;2022-08-04T17:41:10;3.37;;;1.63;;
22388;SDS011;11362;48.102;11.620;2022-08-04T17:43:42;5.43;;;2.07;;
22388;SDS011;11362;48.102;11.620;2022-08-04T17:46:13;4.27;;;2.17;;
22388;SDS011;11362;48.102;11.620;2022-08-04T17:48:55;3.20;;;1.77;;
22388;SDS011;11362;48.102;11.620;2022-08-04T17:51:21;4.60;;;2.00;;
22388;SDS011;11362;48.102;11.620;2022-08-04T17:53:49;2.07;;;1.87;;
22388;SDS011;11362;48.102;11.620;2022-08-04T18:02:01;3.03;;;2.03;;
22388;SDS011;11362;48.102;11.620;2022-08-04T18:06:58;3.87;;;2.23;;
22388;SDS011;11362;48.102;11.620;2022-08-04T18:09:27;5.10;;;2.23;;
22388;SDS011;11362;48.102;11.620;2022-08-04T18:11:55;4.27;;;2.53;;
22388;SDS011;11362;48.102;11.620;2022-08-04T18:14:23;2.93;;;1.97;;
22388;SDS011;11362;48.102;11.620;2022-08-04T18:16:49;4.67;;;2.00;;
22388;SDS011;11362;48.102;11.620;2022-08-04T18:19:15;8.17;;;2.50;;
22388;SDS011;11362;48.102;11.620;2022-08-04T18:21:41;5.23;;;2.40;;
22388;SDS011;11362;48.102;11.620;2022-08-04T18:24:07;6.90;;;2.80;;
22388;SDS011;11362;48.102;11.620;2022-08-04T18:26:32;6.23;;;2.40;;
22388;SDS011;11362;48.102;11.620;2022-08-04T18:28:57;4.90;;;2.60;;
22388;SDS011;11362;48.102;11.620;2022-08-04T18:31:23;3.70;;;2.80;;
22388;SDS011;11362;48.102;11.620;2022-08-04T18:33:48;3.00;;;2.80;;
22388;SDS011;11362;48.102;11.620;2022-08-04T18:36:13;3.37;;;2.40;;
22388;SDS011;11362;48.102;11.620;2022-08-04T18:38:39;6.83;;;2.57;;
22388;SDS011;11362;48.102;11.620;2022-08-04T18:41:04;2.20;;;1.90;;
22388;SDS011;11362;48.102;11.620;2022-08-04T18:43:29;2.57;;;2.27;;
22388;SDS011;11362;48.102;11.620;2022-08-04T18:45:54;3.40;;;2.60;;
22388;SDS011;11362;48.102;11.620;2022-08-04T18:48:20;3.70;;;2.40;;
22388;SDS011;11362;48.102;11.620;2022-08-04T18:50:45;4.03;;;2.17;;
22388;SDS011;11362;48.102;11.620;2022-08-04T18:53:10;2.77;;;2.10;;
22388;SDS011;11362;48.102;11.620;2022-08-04T18:55:36;2.87;;;2.10;;
22388;SDS011;11362;48.102;11.620;2022-08-04T18:58:01;4.93;;;2.17;;
22388;SDS011;11362;48.102;11.620;2022-08-04T19:00:27;2.87;;;2.10;;
22388;SDS011;11362;48.102;11.620;2022-08-04T19:02:52;3.47;;;2.10;;
22388;SDS011;11362;48.102;11.620;2022-08-04T19:05:17;3.30;;;2.10;;
22388;SDS011;11362;48.102;11.620;2022-08-04T19:07:42;2.30;;;2.20;;
22388;SDS011;11362;48.102;11.620;2022-08-04T19:10:08;2.47;;;2.27;;
22388;SDS011;11362;48.102;11.620;2022-08-04T19:12:34;3.30;;;2.40;;
22388;SDS011;11362;48.102;11.620;2022-08-04T19:14:59;3.60;;;2.50;;